createdAt,value
2022-09-28T00:01:09.668Z,10.68
2022-09-28T00:04:12.188Z,10.57
2022-09-28T00:07:14.107Z,10.37
2022-09-28T00:10:16.410Z,10.30
2022-09-28T00:13:18.598Z,10.19
2022-09-28T00:16:22.549Z,10.06
2022-09-28T00:19:24.671Z,10.07
2022-09-28T00:22:28.059Z,10.26
2022-09-28T00:25:29.994Z,10.21
2022-09-28T00:28:32.765Z,10.25
2022-09-28T00:31:35.427Z,10.35
2022-09-28T00:34:41.240Z,10.41
2022-09-28T00:37:43.439Z,10.48
2022-09-28T00:40:46.790Z,10.50
2022-09-28T00:43:48.802Z,10.61
2022-09-28T00:46:56.780Z,10.77
2022-09-28T00:50:05.072Z,10.67
2022-09-28T00:53:14.595Z,10.53
2022-09-28T00:56:19.170Z,10.77
2022-09-28T00:59:24.668Z,10.84
2022-09-28T01:02:26.702Z,10.73
2022-09-28T01:05:29.515Z,10.56
2022-09-28T01:08:32.653Z,10.58
2022-09-28T01:11:36.010Z,10.67
2022-09-28T01:14:39.652Z,10.64
2022-09-28T01:17:53.241Z,10.44
2022-09-28T01:21:01.664Z,10.35
2022-09-28T01:24:20.075Z,10.64
2022-09-28T01:27:29.835Z,10.46
2022-09-28T01:30:37.431Z,10.20
2022-09-28T01:33:41.927Z,10.09
2022-09-28T01:36:47.931Z,10.12
2022-09-28T01:39:52.716Z,10.12
2022-09-28T01:42:57.603Z,10.09
2022-09-28T01:46:07.983Z,10.04
2022-09-28T01:49:25.839Z,9.98
2022-09-28T01:52:35.143Z,9.93
2022-09-28T01:55:41.785Z,9.89
2022-09-28T01:58:50.749Z,9.79
2022-09-28T02:02:12.528Z,9.72
2022-09-28T02:05:20.030Z,9.71
2022-09-28T02:08:26.853Z,9.80
2022-09-28T02:11:29.509Z,9.64
2022-09-28T02:14:34.100Z,9.77
2022-09-28T02:17:36.657Z,9.76
2022-09-28T02:20:39.820Z,9.77
2022-09-28T02:23:47.479Z,9.72
2022-09-28T02:26:50.617Z,9.79
2022-09-28T02:29:53.201Z,9.88
2022-09-28T02:32:57.631Z,10.02
2022-09-28T02:36:00.677Z,9.78
2022-09-28T02:39:03.873Z,9.67
2022-09-28T02:42:11.873Z,9.63
2022-09-28T02:45:24.642Z,9.69
2022-09-28T02:48:55.839Z,9.68
2022-09-28T02:52:19.911Z,9.72
2022-09-28T02:55:33.844Z,9.70
2022-09-28T02:58:42.107Z,9.59
2022-09-28T03:01:58.399Z,9.48
2022-09-28T03:05:03.941Z,9.53
2022-09-28T03:08:11.828Z,9.49
2022-09-28T03:11:16.682Z,9.51
2022-09-28T03:14:21.769Z,9.69
2022-09-28T03:17:24.414Z,9.69
2022-09-28T03:20:27.001Z,9.67
2022-09-28T03:23:29.430Z,9.65
2022-09-28T03:26:31.943Z,9.57
2022-09-28T03:29:34.576Z,9.56
2022-09-28T03:32:37.452Z,9.48
2022-09-28T03:35:39.861Z,9.50
2022-09-28T03:38:42.098Z,9.49
2022-09-28T03:41:45.453Z,9.52
2022-09-28T03:44:47.471Z,9.52
2022-09-28T03:47:50.049Z,9.56
2022-09-28T03:50:54.956Z,9.55
2022-09-28T03:53:58.489Z,9.54
2022-09-28T03:57:01.139Z,9.63
2022-09-28T04:00:04.872Z,9.57
2022-09-28T04:03:15.546Z,9.72
2022-09-28T04:06:18.038Z,9.63
2022-09-28T04:09:19.936Z,9.62
2022-09-28T04:12:22.098Z,9.55
2022-09-28T04:15:24.562Z,9.58
2022-09-28T04:18:26.833Z,9.54
2022-09-28T04:21:30.684Z,9.45
2022-09-28T04:24:33.649Z,9.47
2022-09-28T04:27:54.333Z,9.37
2022-09-28T04:30:56.577Z,9.47
2022-09-28T04:33:58.669Z,9.35
2022-09-28T04:37:00.833Z,9.35
2022-09-28T04:40:03.316Z,9.37
2022-09-28T04:43:06.427Z,9.24
2022-09-28T04:46:10.158Z,9.12
2022-09-28T04:49:12.579Z,9.08
2022-09-28T04:52:18.315Z,9.11
2022-09-28T04:55:22.564Z,9.50
2022-09-28T04:58:24.508Z,9.68
2022-09-28T05:01:26.813Z,9.75
2022-09-28T05:04:30.955Z,9.57
2022-09-28T05:07:34.031Z,9.51
2022-09-28T05:10:36.860Z,9.49
2022-09-28T05:13:45.432Z,9.35
2022-09-28T05:16:48.882Z,9.24
2022-09-28T05:19:52.927Z,9.15
2022-09-28T05:22:55.904Z,9.04
2022-09-28T05:26:00.890Z,9.02
2022-09-28T05:29:03.303Z,9.27
2022-09-28T05:32:07.863Z,9.21
2022-09-28T05:35:11.178Z,9.29
2022-09-28T05:38:13.494Z,10.75
2022-09-28T05:41:15.420Z,13.58
2022-09-28T05:44:17.668Z,16.20
2022-09-28T05:47:19.869Z,20.06
2022-09-28T05:50:22.441Z,23.04
2022-09-28T05:53:24.858Z,24.73
2022-09-28T05:56:29.524Z,26.31
2022-09-28T05:59:31.588Z,28.61
2022-09-28T06:02:33.970Z,29.99
2022-09-28T06:05:37.107Z,27.34
2022-09-28T06:08:42.891Z,26.31
2022-09-28T06:11:45.944Z,24.52
2022-09-28T06:14:49.432Z,22.53
2022-09-28T06:17:58.501Z,20.73
2022-09-28T06:21:02.568Z,19.42
2022-09-28T06:24:05.524Z,18.43
2022-09-28T06:27:07.506Z,17.72
2022-09-28T06:30:12.137Z,16.51
2022-09-28T06:33:15.422Z,15.79
2022-09-28T06:36:18.035Z,15.17
2022-09-28T06:39:20.101Z,14.89
2022-09-28T06:42:22.917Z,14.96
2022-09-28T06:45:31.775Z,14.57
2022-09-28T06:48:36.353Z,14.25
2022-09-28T06:51:38.327Z,14.14
2022-09-28T06:54:41.935Z,13.83
2022-09-28T06:57:44.055Z,13.90
2022-09-28T07:00:47.362Z,14.24
2022-09-28T07:03:53.609Z,14.04
2022-09-28T07:06:59.068Z,13.57
2022-09-28T07:10:03.201Z,13.47
2022-09-28T07:13:09.521Z,13.31
2022-09-28T07:16:13.547Z,13.20
2022-09-28T07:19:16.564Z,13.14
2022-09-28T07:22:23.238Z,12.90
2022-09-28T07:25:36.343Z,12.96
2022-09-28T07:28:41.470Z,12.96
2022-09-28T07:31:43.997Z,13.02
2022-09-28T07:34:48.640Z,13.19
2022-09-28T07:38:05.409Z,13.19
2022-09-28T07:41:14.830Z,13.22
2022-09-28T07:44:19.087Z,13.32
2022-09-28T07:47:30.817Z,13.52
2022-09-28T07:50:43.152Z,13.58
2022-09-28T07:53:45.799Z,13.52
2022-09-28T07:56:49.714Z,13.69
2022-09-28T07:59:53.590Z,13.98
2022-09-28T08:02:59.210Z,14.04
2022-09-28T08:06:03.624Z,14.05
2022-09-28T08:09:05.896Z,14.06
2022-09-28T08:12:21.817Z,14.13
2022-09-28T08:15:24.472Z,14.27
2022-09-28T08:18:27.077Z,14.64
2022-09-28T08:21:47.373Z,14.69
2022-09-28T08:24:49.679Z,14.77
2022-09-28T08:27:52.270Z,14.71
2022-09-28T08:30:55.236Z,14.65
2022-09-28T08:33:58.303Z,14.66
2022-09-28T08:37:02.529Z,14.77
2022-09-28T08:40:06.206Z,14.75
2022-09-28T08:43:20.752Z,14.82
2022-09-28T08:46:31.674Z,14.88
2022-09-28T08:49:37.241Z,15.11
2022-09-28T08:52:40.190Z,15.41
2022-09-28T08:55:42.851Z,15.41
2022-09-28T08:58:48.180Z,15.51
2022-09-28T09:01:58.153Z,15.42
2022-09-28T09:05:02.616Z,15.50
2022-09-28T09:08:06.168Z,15.47
2022-09-28T09:11:08.264Z,15.44
2022-09-28T09:14:19.855Z,15.52
2022-09-28T09:17:28.765Z,15.55
2022-09-28T09:20:50.044Z,15.69
2022-09-28T09:23:56.905Z,15.80
2022-09-28T09:27:05.806Z,15.84
2022-09-28T09:30:11.419Z,15.85
2022-09-28T09:33:30.838Z,15.95
2022-09-28T09:36:47.703Z,16.13
2022-09-28T09:39:53.126Z,16.00
2022-09-28T09:43:02.043Z,16.23
2022-09-28T09:46:19.424Z,16.41
2022-09-28T09:49:38.926Z,16.60
2022-09-28T09:52:45.154Z,16.68
2022-09-28T09:55:50.434Z,16.73
2022-09-28T09:58:59.163Z,17.01
2022-09-28T10:02:20.615Z,16.88
2022-09-28T10:05:29.439Z,17.37
2022-09-28T10:08:34.550Z,17.57
2022-09-28T10:11:39.436Z,17.99
2022-09-28T10:14:44.985Z,17.94
2022-09-28T10:17:49.034Z,17.48
2022-09-28T10:20:58.131Z,17.39
2022-09-28T10:24:02.825Z,17.33
2022-09-28T10:27:07.625Z,17.73
2022-09-28T10:30:10.219Z,18.22
2022-09-28T10:33:43.885Z,18.17
2022-09-28T10:36:48.898Z,18.26
2022-09-28T10:39:55.810Z,18.52
2022-09-28T10:43:01.125Z,18.56
2022-09-28T10:46:06.406Z,18.37
2022-09-28T10:49:15.541Z,18.20
2022-09-28T10:52:38.281Z,18.18
2022-09-28T10:55:40.722Z,18.24
2022-09-28T10:58:43.076Z,18.28
2022-09-28T11:01:45.739Z,17.82
2022-09-28T11:04:53.748Z,17.28
2022-09-28T11:07:57.687Z,17.02
2022-09-28T11:11:04.110Z,17.31
2022-09-28T11:14:18.123Z,18.16
2022-09-28T11:17:40.439Z,19.53
2022-09-28T11:20:45.331Z,19.06
2022-09-28T11:24:05.678Z,18.79
2022-09-28T11:27:19.025Z,20.20
2022-09-28T11:30:23.270Z,20.69
2022-09-28T11:33:31.130Z,23.45
2022-09-28T11:36:51.974Z,25.60
2022-09-28T11:40:03.110Z,27.08
2022-09-28T11:43:11.473Z,26.24
2022-09-28T11:46:25.920Z,25.42
2022-09-28T11:49:47.718Z,23.71
2022-09-28T11:52:56.157Z,22.50
2022-09-28T11:56:09.070Z,21.03
2022-09-28T11:59:14.803Z,21.57
2022-09-28T12:02:22.107Z,24.24
2022-09-28T12:05:26.859Z,24.72
2022-09-28T12:08:37.370Z,26.06
2022-09-28T12:11:43.921Z,25.93
2022-09-28T12:14:48.495Z,27.77
2022-09-28T12:17:50.629Z,26.51
2022-09-28T12:21:04.434Z,26.38
2022-09-28T12:24:16.017Z,27.44
2022-09-28T12:27:47.390Z,26.85
2022-09-28T12:30:49.904Z,26.34
2022-09-28T12:33:52.110Z,26.89
2022-09-28T12:37:13.197Z,27.07
2022-09-28T12:40:18.390Z,25.78
2022-09-28T12:43:20.882Z,26.84
2022-09-28T12:46:22.934Z,25.30
2022-09-28T12:53:13.929Z,25.89
2022-09-28T12:56:22.377Z,25.33
2022-09-28T12:59:46.356Z,25.51
2022-09-28T13:03:07.218Z,25.65
2022-09-28T13:06:25.609Z,25.53
2022-09-28T13:09:31.392Z,23.72
2022-09-28T13:12:47.226Z,21.97
2022-09-28T13:15:49.532Z,21.04
2022-09-28T13:18:54.535Z,20.06
2022-09-28T13:22:15.365Z,20.27
2022-09-28T13:25:19.223Z,21.06
2022-09-28T13:28:26.241Z,21.00
2022-09-28T13:31:34.927Z,20.40
2022-09-28T13:34:39.634Z,20.14
2022-09-28T13:37:41.721Z,19.82
2022-09-28T13:41:10.425Z,20.02
2022-09-28T13:44:20.197Z,19.52
2022-09-28T13:47:38.400Z,19.70
2022-09-28T13:50:55.701Z,19.73
2022-09-28T13:54:06.865Z,19.42
2022-09-28T13:57:25.190Z,19.12
2022-09-28T14:00:30.787Z,19.16
2022-09-28T14:03:45.286Z,19.18
2022-09-28T14:06:59.242Z,18.99
2022-09-28T14:10:10.752Z,19.15
2022-09-28T14:13:12.839Z,19.54
2022-09-28T14:16:18.090Z,19.28
2022-09-28T14:19:24.894Z,19.35
2022-09-28T14:22:27.135Z,18.96
2022-09-28T14:25:33.263Z,18.88
2022-09-28T14:28:50.364Z,18.24
2022-09-28T14:31:52.501Z,18.10
2022-09-28T14:34:56.864Z,18.24
2022-09-28T14:38:18.867Z,18.80
2022-09-28T14:41:31.335Z,19.14
2022-09-28T14:44:53.345Z,18.66
2022-09-28T14:48:12.376Z,18.46
2022-09-28T14:51:26.728Z,18.16
2022-09-28T14:54:48.117Z,17.91
2022-09-28T14:57:55.640Z,17.80
2022-09-28T15:01:03.428Z,17.69
2022-09-28T15:04:09.607Z,17.38
2022-09-28T15:07:22.566Z,17.46
2022-09-28T15:10:32.158Z,17.44
2022-09-28T15:13:34.507Z,17.34
2022-09-28T15:16:36.674Z,17.09
2022-09-28T15:19:41.234Z,17.06
2022-09-28T15:22:46.865Z,16.88
2022-09-28T15:25:53.098Z,16.71
2022-09-28T15:29:15.718Z,16.62
2022-09-28T15:32:24.706Z,16.49
2022-09-28T15:35:27.503Z,16.43
2022-09-28T15:38:32.377Z,16.25
2022-09-28T15:41:34.789Z,16.17
2022-09-28T15:44:39.641Z,16.13
2022-09-28T15:47:43.668Z,16.00
2022-09-28T15:51:12.372Z,16.02
2022-09-28T15:54:19.331Z,16.01
2022-09-28T15:57:30.434Z,15.90
2022-09-28T16:00:33.912Z,15.82
2022-09-28T16:03:36.157Z,15.74
2022-09-28T16:06:40.403Z,15.62
2022-09-28T16:09:56.983Z,15.55
2022-09-28T16:13:10.503Z,15.55
2022-09-28T16:16:16.768Z,15.42
2022-09-28T16:19:24.048Z,15.31
2022-09-28T16:22:28.827Z,15.17
2022-09-28T16:25:33.232Z,15.08
2022-09-28T16:28:36.423Z,14.99
2022-09-28T16:31:41.428Z,14.93
2022-09-28T16:34:43.620Z,14.79
2022-09-28T16:37:47.115Z,14.72
2022-09-28T16:40:51.299Z,14.69
2022-09-28T16:44:02.395Z,14.73
2022-09-28T16:47:06.330Z,14.76
2022-09-28T16:50:12.534Z,14.75
2022-09-28T16:53:34.385Z,14.83
2022-09-28T16:56:37.064Z,14.72
2022-09-28T16:59:39.669Z,14.62
2022-09-28T17:02:46.742Z,14.64
2022-09-28T17:05:50.428Z,14.67
2022-09-28T17:08:52.534Z,14.65
2022-09-28T17:11:56.992Z,14.67
2022-09-28T17:15:00.050Z,14.74
2022-09-28T17:18:02.666Z,14.75
2022-09-28T17:21:06.114Z,14.73
2022-09-28T17:24:09.216Z,14.49
2022-09-28T17:27:15.363Z,14.28
2022-09-28T17:30:23.509Z,14.35
2022-09-28T17:33:29.253Z,14.19
2022-09-28T17:36:31.544Z,14.10
2022-09-28T17:39:33.481Z,14.07
2022-09-28T17:42:36.119Z,14.06
2022-09-28T17:45:41.566Z,14.05
2022-09-28T17:48:46.943Z,14.03
2022-09-28T17:51:50.342Z,13.82
2022-09-28T17:54:53.895Z,13.67
2022-09-28T17:57:55.966Z,13.40
2022-09-28T18:00:58.706Z,13.25
2022-09-28T18:04:01.846Z,13.06
2022-09-28T18:07:03.941Z,12.82
2022-09-28T18:10:06.742Z,12.68
2022-09-28T18:13:09.083Z,12.53
2022-09-28T18:16:11.819Z,12.50
2022-09-28T18:19:13.941Z,12.49
2022-09-28T18:22:16.379Z,12.43
2022-09-28T18:25:18.444Z,12.46
2022-09-28T18:28:21.591Z,12.33
2022-09-28T18:31:23.661Z,12.32
2022-09-28T18:34:26.101Z,12.27
2022-09-28T18:37:28.151Z,12.15
2022-09-28T18:40:30.584Z,12.15
2022-09-28T18:43:35.721Z,12.07
2022-09-28T18:46:39.402Z,12.10
2022-09-28T18:49:46.423Z,12.15
2022-09-28T18:52:49.396Z,12.18
2022-09-28T18:55:51.476Z,12.19
2022-09-28T18:58:53.859Z,12.19
2022-09-28T19:01:55.932Z,12.26
2022-09-28T19:04:59.033Z,12.23
2022-09-28T19:08:01.186Z,12.19
2022-09-28T19:11:14.235Z,12.12
2022-09-28T19:14:16.535Z,12.12
2022-09-28T19:17:18.935Z,12.09
2022-09-28T19:20:21.309Z,12.04
2022-09-28T19:23:26.660Z,12.12
2022-09-28T19:26:29.145Z,12.08
2022-09-28T19:29:31.495Z,12.10
2022-09-28T19:32:33.483Z,12.09
2022-09-28T19:35:35.755Z,12.13
2022-09-28T19:38:38.494Z,12.05
2022-09-28T19:41:43.440Z,12.10
2022-09-28T19:44:47.381Z,12.06
2022-09-28T19:47:49.738Z,11.99
2022-09-28T19:51:10.218Z,12.07
2022-09-28T19:54:13.633Z,12.09
2022-09-28T19:57:16.260Z,11.98
2022-09-28T20:00:18.889Z,12.04
2022-09-28T20:03:21.226Z,12.05
2022-09-28T20:06:23.672Z,12.05
2022-09-28T20:09:26.018Z,12.05
2022-09-28T20:12:28.115Z,11.97
2022-09-28T20:15:31.299Z,12.11
2022-09-28T20:18:37.295Z,12.04
2022-09-28T20:21:39.631Z,11.92
2022-09-28T20:24:41.609Z,11.92
2022-09-28T20:27:44.213Z,11.97
2022-09-28T20:30:46.226Z,12.04
2022-09-28T20:33:49.039Z,11.93
2022-09-28T20:36:50.993Z,11.92
2022-09-28T20:39:53.308Z,11.99
2022-09-28T20:42:55.708Z,12.05
2022-09-28T20:45:58.767Z,11.98
2022-09-28T20:49:00.866Z,12.07
2022-09-28T20:52:03.218Z,12.05
2022-09-28T20:55:05.363Z,12.00
2022-09-28T20:58:07.821Z,12.03
2022-09-28T21:01:20.145Z,12.02
2022-09-28T21:04:22.582Z,11.93
2022-09-28T21:07:24.580Z,11.97
2022-09-28T21:10:30.287Z,11.89
2022-09-28T21:13:32.236Z,11.84
2022-09-28T21:16:35.124Z,11.86
2022-09-28T21:19:37.206Z,11.83
2022-09-28T21:22:39.624Z,11.76
2022-09-28T21:25:41.986Z,11.68
2022-09-28T21:28:46.025Z,11.72
2022-09-28T21:31:47.998Z,11.71
2022-09-28T21:34:50.563Z,11.66
2022-09-28T21:37:52.702Z,11.67
2022-09-28T21:40:56.830Z,11.69
2022-09-28T21:43:59.339Z,11.64
2022-09-28T21:47:01.716Z,11.68
2022-09-28T21:50:03.888Z,11.66
2022-09-28T21:53:06.251Z,11.66
2022-09-28T21:56:10.057Z,11.58
2022-09-28T21:59:12.437Z,11.57
2022-09-28T22:02:14.752Z,11.61
2022-09-28T22:05:17.112Z,11.63
2022-09-28T22:08:19.603Z,11.67
2022-09-28T22:11:23.141Z,11.74
2022-09-28T22:14:25.101Z,11.74
2022-09-28T22:17:27.473Z,11.83
2022-09-28T22:20:29.497Z,11.80
2022-09-28T22:23:32.304Z,11.87
2022-09-28T22:26:35.626Z,11.85
2022-09-28T22:29:37.957Z,11.97
2022-09-28T22:32:40.351Z,11.93
2022-09-28T22:35:42.772Z,11.88
2022-09-28T22:38:44.856Z,11.90
2022-09-28T22:41:47.747Z,11.96
2022-09-28T22:44:49.847Z,11.99
2022-09-28T22:47:52.205Z,11.96
2022-09-28T22:50:54.320Z,11.93
2022-09-28T22:53:56.811Z,11.91
2022-09-28T22:56:58.854Z,11.85
2022-09-28T23:00:01.393Z,11.85
2022-09-28T23:03:03.895Z,11.82
2022-09-28T23:06:07.347Z,11.90
2022-09-28T23:09:09.431Z,11.83
2022-09-28T23:12:11.841Z,11.92
2022-09-28T23:15:14.275Z,11.84
2022-09-28T23:18:16.809Z,11.89
2022-09-28T23:21:21.665Z,11.85
2022-09-28T23:24:24.246Z,11.88
2022-09-28T23:27:26.697Z,11.94
2022-09-28T23:30:29.243Z,11.84
2022-09-28T23:33:31.217Z,11.92
2022-09-28T23:36:34.431Z,11.86
2022-09-28T23:39:36.456Z,11.90
2022-09-28T23:42:38.833Z,11.96
2022-09-28T23:45:42.661Z,11.96
2022-09-28T23:48:45.016Z,11.98
2022-09-28T23:51:47.070Z,11.92
2022-09-28T23:54:49.465Z,12.00
2022-09-28T23:57:55.461Z,11.99
